createdAt,value
2022-12-11T00:01:10.198Z,101035.94
2022-12-11T00:03:38.427Z,101033.28
2022-12-11T00:06:08.243Z,101029.94
2022-12-11T00:08:36.940Z,101034.94
2022-12-11T00:11:05.245Z,101028.00
2022-12-11T00:13:33.277Z,101033.25
2022-12-11T00:16:02.736Z,101033.13
2022-12-11T00:18:30.853Z,101035.75
2022-12-11T00:21:01.504Z,101035.75
2022-12-11T00:23:29.816Z,101035.84
2022-12-11T00:25:58.310Z,101032.22
2022-12-11T00:28:28.861Z,101034.00
2022-12-11T00:30:56.948Z,101031.47
2022-12-11T00:33:28.441Z,101034.00
2022-12-11T00:35:56.542Z,101026.16
2022-12-11T00:38:24.650Z,101039.25
2022-12-11T00:40:52.890Z,101028.81
2022-12-11T00:43:20.915Z,101040.88
2022-12-11T00:45:49.189Z,101037.38
2022-12-11T00:48:17.368Z,101033.97
2022-12-11T00:50:47.492Z,101032.28
2022-12-11T00:53:15.567Z,101033.91
2022-12-11T00:55:44.421Z,101022.81
2022-12-11T00:58:13.214Z,101024.47
2022-12-11T01:00:42.601Z,101024.41
2022-12-11T01:03:11.279Z,101012.25
2022-12-11T01:05:39.469Z,101014.94
2022-12-11T01:08:09.242Z,101006.34
2022-12-11T01:10:37.368Z,101015.75
2022-12-11T01:13:07.502Z,101008.91
2022-12-11T01:15:41.820Z,101014.09
2022-12-11T01:18:11.221Z,101013.13
2022-12-11T01:20:41.093Z,101008.88
2022-12-11T01:23:13.553Z,101011.53
2022-12-11T01:25:41.723Z,101013.03
2022-12-11T01:28:10.468Z,101017.41
2022-12-11T01:30:38.802Z,101014.06
2022-12-11T01:33:06.915Z,101008.97
2022-12-11T01:35:35.186Z,101015.72
2022-12-11T01:38:03.343Z,101006.31
2022-12-11T01:40:32.882Z,100999.56
2022-12-11T01:43:00.984Z,101001.97
2022-12-11T01:45:42.052Z,100998.44
2022-12-11T01:48:13.699Z,101004.50
2022-12-11T01:50:46.213Z,101005.41
2022-12-11T01:53:17.721Z,101001.97
2022-12-11T01:55:48.994Z,101005.41
2022-12-11T01:58:19.327Z,100997.56
2022-12-11T02:00:47.728Z,101002.59
2022-12-11T02:03:15.982Z,101003.47
2022-12-11T02:05:44.017Z,101003.53
2022-12-11T02:08:12.710Z,101003.63
2022-12-11T02:10:54.171Z,101009.75
2022-12-11T02:13:29.538Z,101014.03
2022-12-11T02:16:08.081Z,101007.13
2022-12-11T02:18:40.980Z,101007.13
2022-12-11T02:21:15.135Z,101009.72
2022-12-11T02:24:02.006Z,101004.44
2022-12-11T02:26:50.224Z,101007.91
2022-12-11T02:29:24.206Z,101000.31
2022-12-11T02:31:59.729Z,101000.22
2022-12-11T02:34:33.518Z,100998.34
2022-12-11T02:37:05.569Z,100994.00
2022-12-11T02:39:37.673Z,100994.84
2022-12-11T02:42:06.702Z,100992.19
2022-12-11T02:44:37.025Z,100992.06
2022-12-11T02:47:10.051Z,100995.63
2022-12-11T02:49:40.292Z,100990.41
2022-12-11T02:52:14.098Z,100986.22
2022-12-11T02:54:45.101Z,100994.81
2022-12-11T02:57:17.914Z,100984.50
2022-12-11T02:59:47.929Z,100985.25
2022-12-11T03:02:18.898Z,100980.88
2022-12-11T03:04:48.084Z,100981.75
2022-12-11T03:07:19.407Z,100982.72
2022-12-11T03:09:49.198Z,100984.53
2022-12-11T03:12:20.783Z,100982.84
2022-12-11T03:14:51.312Z,100977.53
2022-12-11T03:17:22.388Z,100973.09
2022-12-11T03:19:56.615Z,100976.56
2022-12-11T03:22:36.790Z,100976.75
2022-12-11T03:25:11.292Z,100975.88
2022-12-11T03:27:45.800Z,100978.59
2022-12-11T03:30:18.851Z,100988.00
2022-12-11T03:32:51.424Z,100988.66
2022-12-11T03:35:23.406Z,100985.41
2022-12-11T03:37:54.403Z,100975.22
2022-12-11T03:40:25.783Z,100980.31
2022-12-11T03:42:57.768Z,100975.25
2022-12-11T03:45:29.938Z,100979.34
2022-12-11T03:48:02.212Z,100977.47
2022-12-11T03:50:33.362Z,100979.22
2022-12-11T03:53:03.232Z,100976.66
2022-12-11T03:55:33.985Z,100967.03
2022-12-11T03:58:02.213Z,100968.63
2022-12-11T04:00:31.782Z,100969.44
2022-12-11T04:03:15.084Z,100960.00
2022-12-11T04:05:44.873Z,100959.16
2022-12-11T04:08:13.472Z,100962.59
2022-12-11T04:10:42.353Z,100953.91
2022-12-11T04:13:11.648Z,100960.88
2022-12-11T04:15:40.979Z,100962.66
2022-12-11T04:18:27.474Z,100959.22
2022-12-11T04:21:13.306Z,100959.19
2022-12-11T04:23:59.206Z,100956.47
2022-12-11T04:26:27.421Z,100947.97
2022-12-11T04:28:55.729Z,100948.75
2022-12-11T04:31:25.207Z,100954.66
2022-12-11T04:33:53.460Z,100954.50
2022-12-11T04:36:21.534Z,100957.06
2022-12-11T04:38:49.601Z,100958.09
2022-12-11T04:41:18.425Z,100949.47
2022-12-11T04:43:46.780Z,100953.56
2022-12-11T04:46:16.845Z,100948.50
2022-12-11T04:48:48.441Z,100949.22
2022-12-11T04:51:18.778Z,100949.16
2022-12-11T04:53:47.401Z,100938.81
2022-12-11T04:56:16.897Z,100943.06
2022-12-11T04:58:46.053Z,100941.34
2022-12-11T05:01:15.476Z,100947.34
2022-12-11T05:03:43.605Z,100940.38
2022-12-11T05:06:13.554Z,100936.91
2022-12-11T05:08:43.886Z,100941.06
2022-12-11T05:11:14.923Z,100937.72
2022-12-11T05:13:46.569Z,100943.69
2022-12-11T05:16:16.745Z,100943.72
2022-12-11T05:18:44.937Z,100950.63
2022-12-11T05:21:16.079Z,100948.09
2022-12-11T05:23:44.192Z,100946.31
2022-12-11T05:26:15.411Z,100948.00
2022-12-11T05:28:43.952Z,100953.28
2022-12-11T05:31:14.665Z,100952.38
2022-12-11T05:33:43.192Z,100951.47
2022-12-11T05:36:17.732Z,100949.78
2022-12-11T05:38:46.111Z,100947.19
2022-12-11T05:41:15.337Z,100939.44
2022-12-11T05:43:43.683Z,100945.63
2022-12-11T05:46:14.214Z,100947.31
2022-12-11T05:48:43.700Z,100937.00
2022-12-11T05:51:12.431Z,100936.13
2022-12-11T05:53:43.246Z,100932.66
2022-12-11T05:56:14.063Z,100936.88
2022-12-11T05:58:43.027Z,100936.03
2022-12-11T06:01:12.886Z,100935.16
2022-12-11T06:03:41.152Z,100925.66
2022-12-11T06:06:09.702Z,100925.59
2022-12-11T06:08:37.821Z,100919.66
2022-12-11T06:11:08.250Z,100919.69
2022-12-11T06:13:36.905Z,100916.38
2022-12-11T06:16:06.763Z,100914.56
2022-12-11T06:18:37.973Z,100915.34
2022-12-11T06:21:13.681Z,100917.16
2022-12-11T06:23:42.707Z,100912.19
2022-12-11T06:26:12.795Z,100913.78
2022-12-11T06:28:40.906Z,100915.56
2022-12-11T06:31:09.481Z,100921.53
2022-12-11T06:33:38.100Z,100918.00
2022-12-11T06:36:08.387Z,100920.59
2022-12-11T06:38:36.952Z,100918.78
2022-12-11T06:41:07.213Z,100923.03
2022-12-11T06:43:38.836Z,100922.28
2022-12-11T06:46:07.249Z,100923.94
2022-12-11T06:48:35.953Z,100930.03
2022-12-11T06:51:06.914Z,100928.31
2022-12-11T06:53:35.138Z,100936.09
2022-12-11T06:56:05.211Z,100940.53
2022-12-11T06:58:37.551Z,100945.63
2022-12-11T07:01:06.665Z,100943.84
2022-12-11T07:03:34.678Z,100941.25
2022-12-11T07:06:06.360Z,100945.56
2022-12-11T07:08:34.953Z,100950.81
2022-12-11T07:11:06.731Z,100947.34
2022-12-11T07:13:36.270Z,100945.56
2022-12-11T07:16:10.798Z,100951.59
2022-12-11T07:18:41.479Z,100952.47
2022-12-11T07:21:12.944Z,100957.03
2022-12-11T07:23:41.665Z,100950.84
2022-12-11T07:26:11.923Z,100954.31
2022-12-11T07:28:41.994Z,100949.09
2022-12-11T07:31:11.485Z,100957.69
2022-12-11T07:33:39.588Z,100958.50
2022-12-11T07:36:10.188Z,100954.22
2022-12-11T07:38:38.595Z,100959.41
2022-12-11T07:41:08.544Z,100964.56
2022-12-11T07:43:37.647Z,100957.59
2022-12-11T07:46:09.626Z,100956.84
2022-12-11T07:48:38.622Z,100949.09
2022-12-11T07:51:11.592Z,100955.16
2022-12-11T07:53:40.258Z,100962.06
2022-12-11T07:56:08.820Z,100963.78
2022-12-11T07:58:38.991Z,100966.34
2022-12-11T08:01:13.049Z,100968.91
2022-12-11T08:03:42.183Z,100964.75
2022-12-11T08:06:10.747Z,100973.38
2022-12-11T08:08:39.226Z,100968.16
2022-12-11T08:11:08.867Z,100975.94
2022-12-11T08:13:37.530Z,100975.09
2022-12-11T08:16:06.213Z,100970.84
2022-12-11T08:18:36.680Z,100972.53
2022-12-11T08:21:07.390Z,100970.81
2022-12-11T08:23:35.572Z,100975.94
2022-12-11T08:26:04.700Z,100973.53
2022-12-11T08:28:33.020Z,100966.47
2022-12-11T08:31:01.420Z,100973.28
2022-12-11T08:33:29.601Z,100968.09
2022-12-11T08:35:59.114Z,100966.44
2022-12-11T08:38:27.225Z,100967.31
2022-12-11T08:40:55.561Z,100971.56
2022-12-11T08:43:23.654Z,100974.00
2022-12-11T08:45:51.756Z,100962.06
2022-12-11T08:48:19.823Z,100961.28
2022-12-11T08:50:47.943Z,100962.97
2022-12-11T08:53:19.630Z,100962.03
2022-12-11T08:55:47.672Z,100955.31
2022-12-11T08:58:15.757Z,100952.94
2022-12-11T09:00:44.032Z,100965.16
2022-12-11T09:03:13.050Z,100959.06
2022-12-11T09:05:41.193Z,100960.59
2022-12-11T09:08:09.360Z,100959.06
2022-12-11T09:10:38.852Z,100960.66
2022-12-11T09:13:07.240Z,100959.88
2022-12-11T09:15:36.214Z,100958.00
2022-12-11T09:18:05.532Z,100958.72
2022-12-11T09:20:33.633Z,100953.50
2022-12-11T09:23:02.874Z,100951.81
2022-12-11T09:25:31.085Z,100946.75
2022-12-11T09:28:01.507Z,100953.69
2022-12-11T09:30:29.857Z,100949.31
2022-12-11T09:32:58.185Z,100948.63
2022-12-11T09:35:26.446Z,100953.78
2022-12-11T09:37:54.890Z,100955.38
2022-12-11T09:40:23.569Z,100954.50
2022-12-11T09:42:57.642Z,100948.28
2022-12-11T09:45:27.281Z,100950.69
2022-12-11T09:47:57.652Z,100956.63
2022-12-11T09:50:28.772Z,100954.97
2022-12-11T09:53:06.531Z,100955.91
2022-12-11T09:55:44.384Z,100948.97
2022-12-11T09:58:22.319Z,100949.66
2022-12-11T10:00:59.070Z,100938.38
2022-12-11T10:03:50.304Z,100938.44
2022-12-11T10:06:25.324Z,100942.19
2022-12-11T10:09:04.861Z,100936.84
2022-12-11T10:11:51.583Z,100938.56
2022-12-11T10:14:30.293Z,100931.47
2022-12-11T10:17:04.073Z,100934.19
2022-12-11T10:19:33.798Z,100942.00
2022-12-11T10:22:03.603Z,100938.66
2022-12-11T10:27:31.413Z,100927.91
2022-12-11T10:30:06.921Z,100940.03
2022-12-11T10:32:44.594Z,100930.41
2022-12-11T10:35:21.042Z,100932.13
2022-12-11T10:37:49.256Z,100929.53
2022-12-11T10:40:19.472Z,100922.72
2022-12-11T10:42:54.272Z,100919.22
2022-12-11T10:45:22.393Z,100921.72
2022-12-11T10:47:51.815Z,100923.53
2022-12-11T10:50:25.920Z,100922.66
2022-12-11T10:52:54.610Z,100917.44
2022-12-11T10:55:26.454Z,100917.19
2022-12-11T10:58:02.375Z,100921.38
2022-12-11T11:00:35.572Z,100916.28
2022-12-11T11:03:07.663Z,100919.63
2022-12-11T11:05:38.489Z,100914.38
2022-12-11T11:08:19.548Z,100923.06
2022-12-11T11:10:55.471Z,100914.56
2022-12-11T11:13:26.107Z,100912.09
2022-12-11T11:16:01.347Z,100904.47
2022-12-11T11:18:32.106Z,100907.03
2022-12-11T11:21:04.380Z,100902.50
2022-12-11T11:23:32.520Z,100908.47
2022-12-11T11:26:03.155Z,100899.78
2022-12-11T11:28:35.228Z,100902.31
2022-12-11T11:31:07.552Z,100901.59
2022-12-11T11:33:38.954Z,100907.59
2022-12-11T11:36:08.827Z,100894.53
2022-12-11T11:38:42.138Z,100894.50
2022-12-11T11:41:18.109Z,100892.03
2022-12-11T11:43:49.071Z,100893.69
2022-12-11T11:46:21.474Z,100892.94
2022-12-11T11:49:01.429Z,100892.31
2022-12-11T11:51:38.801Z,100890.72
2022-12-11T11:54:17.365Z,100892.06
2022-12-11T11:56:45.982Z,100879.16
2022-12-11T11:59:18.843Z,100877.38
2022-12-11T12:01:47.451Z,100882.75
2022-12-11T12:04:17.459Z,100871.81
2022-12-11T12:07:01.919Z,100881.16
2022-12-11T12:09:43.596Z,100875.69
2022-12-11T12:12:28.573Z,100874.22
2022-12-11T12:15:11.385Z,100880.16
2022-12-11T12:17:55.426Z,100868.19
2022-12-11T12:20:38.449Z,100868.09
2022-12-11T12:23:36.489Z,100865.34
2022-12-11T12:26:12.474Z,100866.31
2022-12-11T12:28:51.937Z,100864.63
2022-12-11T12:31:33.311Z,100867.47
2022-12-11T12:34:11.333Z,100868.22
2022-12-11T12:36:51.140Z,100870.84
2022-12-11T12:39:29.262Z,100867.44
2022-12-11T12:42:07.958Z,100864.13
2022-12-11T12:44:43.476Z,100866.72
2022-12-11T12:47:15.458Z,100865.03
2022-12-11T12:49:47.002Z,100865.78
2022-12-11T12:52:19.066Z,100860.53
2022-12-11T12:55:03.971Z,100860.38
2022-12-11T12:57:36.320Z,100870.69
2022-12-11T13:00:11.063Z,100868.25
2022-12-11T13:02:50.419Z,100870.03
2022-12-11T13:05:23.848Z,100864.88
2022-12-11T13:07:56.818Z,100867.47
2022-12-11T13:10:32.176Z,100862.25
2022-12-11T13:13:01.604Z,100864.13
2022-12-11T13:15:39.040Z,100857.84
2022-12-11T13:18:32.872Z,100860.31
2022-12-11T13:21:01.494Z,100862.09
2022-12-11T13:23:36.449Z,100864.72
2022-12-11T13:26:06.104Z,100865.38
2022-12-11T13:28:48.275Z,100861.00
2022-12-11T13:31:33.990Z,100858.25
2022-12-11T13:34:15.164Z,100862.38
2022-12-11T13:36:49.196Z,100864.13
2022-12-11T13:39:23.753Z,100870.09
2022-12-11T13:41:56.047Z,100872.03
2022-12-11T13:44:27.973Z,100868.00
2022-12-11T13:46:59.469Z,100879.13
2022-12-11T13:49:31.245Z,100873.81
2022-12-11T13:52:01.197Z,100876.44
2022-12-11T13:54:32.437Z,100878.22
2022-12-11T13:57:16.401Z,100882.53
2022-12-11T13:59:49.518Z,100884.28
2022-12-11T14:02:22.745Z,100885.94
2022-12-11T14:04:55.081Z,100886.59
2022-12-11T14:07:29.165Z,100890.16
2022-12-11T14:10:04.072Z,100888.56
2022-12-11T14:12:33.561Z,100887.69
2022-12-11T14:15:03.989Z,100887.59
2022-12-11T14:17:35.540Z,100883.38
2022-12-11T14:20:08.020Z,100879.25
2022-12-11T14:22:35.899Z,100877.53
2022-12-11T14:25:21.896Z,100886.22
2022-12-11T14:27:51.254Z,100874.94
2022-12-11T14:30:24.535Z,100875.09
2022-12-11T14:32:55.383Z,100875.03
2022-12-11T14:35:29.574Z,100880.41
2022-12-11T14:38:02.943Z,100881.25
2022-12-11T14:40:37.309Z,100882.75
2022-12-11T14:43:10.949Z,100876.94
2022-12-11T14:45:41.573Z,100877.06
2022-12-11T14:48:14.985Z,100884.72
2022-12-11T14:50:47.571Z,100873.44
2022-12-11T14:53:16.819Z,100881.16
2022-12-11T14:55:49.192Z,100886.50
2022-12-11T14:58:21.846Z,100890.75
2022-12-11T15:00:59.277Z,100891.47
2022-12-11T15:03:33.588Z,100884.63
2022-12-11T15:06:02.688Z,100886.50
2022-12-11T15:08:32.808Z,100892.44
2022-12-11T15:11:09.685Z,100895.84
2022-12-11T15:13:41.442Z,100888.13
2022-12-11T15:16:10.661Z,100886.41
2022-12-11T15:18:42.891Z,100890.59
2022-12-11T15:21:13.754Z,100891.59
2022-12-11T15:23:52.171Z,100897.53
2022-12-11T15:26:36.380Z,100902.88
2022-12-11T15:29:22.915Z,100901.19
2022-12-11T15:32:00.414Z,100900.34
2022-12-11T15:34:34.572Z,100895.91
2022-12-11T15:37:02.782Z,100897.75
2022-12-11T15:39:33.031Z,100899.66
2022-12-11T15:42:03.010Z,100911.78
2022-12-11T15:44:31.048Z,100910.16
2022-12-11T15:46:59.105Z,100911.72
2022-12-11T15:49:27.120Z,100917.81
2022-12-11T15:51:55.156Z,100915.13
2022-12-11T15:54:23.241Z,100916.03
2022-12-11T15:56:51.269Z,100916.69
2022-12-11T15:59:20.926Z,100921.06
2022-12-11T16:01:49.040Z,100920.38
2022-12-11T16:04:19.452Z,100915.19
2022-12-11T16:06:47.602Z,100910.78
2022-12-11T16:09:15.662Z,100914.31
2022-12-11T16:11:43.759Z,100910.97
2022-12-11T16:14:11.783Z,100917.06
2022-12-11T16:16:42.508Z,100915.28
2022-12-11T16:19:13.130Z,100915.41
2022-12-11T16:21:41.206Z,100906.59
2022-12-11T16:24:09.348Z,100904.16
2022-12-11T16:26:37.389Z,100905.00
2022-12-11T16:29:06.117Z,100898.25
2022-12-11T16:31:34.185Z,100904.28
2022-12-11T16:34:03.694Z,100898.03
2022-12-11T16:36:31.851Z,100899.75
2022-12-11T16:38:59.892Z,100899.00
2022-12-11T16:41:28.397Z,100891.34
2022-12-11T16:43:56.471Z,100890.38
2022-12-11T16:46:25.336Z,100892.19
2022-12-11T16:48:53.520Z,100897.44
2022-12-11T16:51:23.003Z,100894.91
2022-12-11T16:53:51.024Z,100897.69
2022-12-11T16:56:19.143Z,100903.59
2022-12-11T16:58:48.329Z,100902.78
2022-12-11T17:01:17.250Z,100898.44
2022-12-11T17:03:45.742Z,100905.44
2022-12-11T17:06:18.384Z,100903.69
2022-12-11T17:08:48.368Z,100905.41
2022-12-11T17:11:18.593Z,100901.16
2022-12-11T17:13:46.972Z,100899.53
2022-12-11T17:16:17.673Z,100905.56
2022-12-11T17:18:45.777Z,100910.69
2022-12-11T17:21:16.044Z,100912.31
2022-12-11T17:23:44.149Z,100915.63
2022-12-11T17:26:14.026Z,100917.34
2022-12-11T17:28:44.355Z,100907.03
2022-12-11T17:31:15.908Z,100913.09
2022-12-11T17:33:44.776Z,100907.91
2022-12-11T17:36:15.379Z,100906.28
2022-12-11T17:38:43.569Z,100916.50
2022-12-11T17:41:20.292Z,100914.91
2022-12-11T17:43:50.839Z,100914.81
2022-12-11T17:46:19.507Z,100914.78
2022-12-11T17:48:47.676Z,100910.50
2022-12-11T17:51:24.008Z,100909.66
2022-12-11T17:53:53.135Z,100911.34
2022-12-11T17:56:22.984Z,100908.75
2022-12-11T17:58:51.164Z,100908.88
2022-12-11T18:01:19.971Z,100909.59
2022-12-11T18:03:48.280Z,100914.66
2022-12-11T18:06:17.967Z,100916.47
2022-12-11T18:08:48.811Z,100912.94
2022-12-11T18:11:18.924Z,100917.31
2022-12-11T18:13:49.732Z,100916.22
2022-12-11T18:16:21.097Z,100915.59
2022-12-11T18:18:50.422Z,100916.41
2022-12-11T18:21:21.663Z,100923.44
2022-12-11T18:23:51.895Z,100921.66
2022-12-11T18:26:21.438Z,100921.78
2022-12-11T18:28:52.160Z,100926.00
2022-12-11T18:31:21.741Z,100914.00
2022-12-11T18:33:50.507Z,100920.75
2022-12-11T18:36:21.103Z,100914.25
2022-12-11T18:38:49.886Z,100919.31
2022-12-11T18:41:19.670Z,100919.19
2022-12-11T18:43:48.215Z,100915.69
2022-12-11T18:46:19.654Z,100926.03
2022-12-11T18:48:49.413Z,100911.38
2022-12-11T18:51:19.633Z,100915.78
2022-12-11T18:53:48.026Z,100918.34
2022-12-11T18:56:18.877Z,100917.56
2022-12-11T18:58:47.906Z,100917.72
2022-12-11T19:01:20.602Z,100917.59
2022-12-11T19:03:52.744Z,100915.81
2022-12-11T19:06:25.354Z,100912.41
2022-12-11T19:08:53.739Z,100917.56
2022-12-11T19:11:24.652Z,100919.22
2022-12-11T19:13:53.859Z,100912.19
2022-12-11T19:16:26.064Z,100912.94
2022-12-11T19:18:54.326Z,100912.97
2022-12-11T19:21:22.548Z,100919.09
2022-12-11T19:23:50.865Z,100919.91
2022-12-11T19:26:21.121Z,100919.91
2022-12-11T19:28:51.234Z,100924.94
2022-12-11T19:31:21.217Z,100924.97
2022-12-11T19:33:51.292Z,100918.97
2022-12-11T19:36:21.856Z,100918.97
2022-12-11T19:38:59.292Z,100925.03
2022-12-11T19:41:30.140Z,100928.53
2022-12-11T19:43:59.969Z,100921.53
2022-12-11T19:46:28.920Z,100921.53
2022-12-11T19:48:59.712Z,100928.56
2022-12-11T19:51:30.210Z,100927.66
2022-12-11T19:53:58.645Z,100927.63
2022-12-11T19:56:27.863Z,100927.78
2022-12-11T19:58:55.957Z,100923.50
2022-12-11T20:01:28.698Z,100929.44
2022-12-11T20:04:00.717Z,100926.91
2022-12-11T20:06:30.196Z,100929.41
2022-12-11T20:08:59.312Z,100931.25
2022-12-11T20:11:32.139Z,100926.06
2022-12-11T20:14:00.391Z,100931.06
2022-12-11T20:17:01.733Z,100931.03
2022-12-11T20:19:22.658Z,100936.22
2022-12-11T20:21:50.729Z,100936.34
2022-12-11T20:24:19.013Z,100937.38
2022-12-11T20:26:47.211Z,100932.06
2022-12-11T20:29:16.036Z,100945.06
2022-12-11T20:31:45.575Z,100934.78
2022-12-11T20:34:14.068Z,100945.06
2022-12-11T20:36:44.252Z,100942.44
2022-12-11T20:39:12.433Z,100933.06
2022-12-11T20:41:40.533Z,100933.03
2022-12-11T20:44:08.816Z,100937.47
2022-12-11T20:46:37.121Z,100932.19
2022-12-11T20:49:09.921Z,100930.50
2022-12-11T20:51:37.786Z,100934.00
2022-12-11T20:54:07.503Z,100936.47
2022-12-11T20:56:36.211Z,100935.78
2022-12-11T20:59:04.598Z,100931.44
2022-12-11T21:01:35.048Z,100931.41
2022-12-11T21:04:03.746Z,100927.81
2022-12-11T21:06:34.093Z,100922.66
2022-12-11T21:09:04.648Z,100931.97
2022-12-11T21:11:34.137Z,100935.53
2022-12-11T21:14:02.204Z,100935.53
2022-12-11T21:16:30.742Z,100932.22
2022-12-11T21:18:59.446Z,100929.59
2022-12-11T21:21:27.698Z,100926.16
2022-12-11T21:23:56.042Z,100925.19
2022-12-11T21:26:24.273Z,100924.38
2022-12-11T21:28:53.791Z,100920.13
2022-12-11T21:31:21.914Z,100921.78
2022-12-11T21:33:50.091Z,100922.63
2022-12-11T21:36:20.924Z,100921.78
2022-12-11T21:38:49.002Z,100924.22
2022-12-11T21:41:19.358Z,100923.44
2022-12-11T21:46:39.567Z,100917.34
2022-12-11T21:49:08.349Z,100923.47
2022-12-11T21:51:43.980Z,100924.50
2022-12-11T21:54:17.216Z,100933.91
2022-12-11T21:56:45.588Z,100936.59
2022-12-11T21:59:14.108Z,100941.72
2022-12-11T22:01:47.119Z,100939.06
2022-12-11T22:04:16.971Z,100939.00
2022-12-11T22:06:47.269Z,100934.59
2022-12-11T22:09:16.378Z,100932.84
2022-12-11T22:11:46.014Z,100940.72
2022-12-11T22:14:14.744Z,100945.91
2022-12-11T22:16:44.778Z,100938.91
2022-12-11T22:19:13.560Z,100950.94
2022-12-11T22:21:41.703Z,100954.34
2022-12-11T22:24:10.118Z,100957.06
2022-12-11T22:26:38.258Z,100960.44
2022-12-11T22:29:06.306Z,100957.84
2022-12-11T22:31:34.677Z,100962.16
2022-12-11T22:34:04.115Z,100963.88
2022-12-11T22:36:32.197Z,100957.06
2022-12-11T22:39:02.031Z,100961.31
2022-12-11T22:41:32.229Z,100961.41
2022-12-11T22:44:01.032Z,100968.25
2022-12-11T22:46:31.147Z,100959.69
2022-12-11T22:48:59.406Z,100960.63
2022-12-11T22:51:28.893Z,100958.81
2022-12-11T22:53:57.010Z,100957.97
2022-12-11T22:56:25.190Z,100956.19
2022-12-11T22:58:53.246Z,100954.41
2022-12-11T23:01:23.410Z,100959.56
2022-12-11T23:03:52.047Z,100955.31
2022-12-11T23:06:22.580Z,100949.34
2022-12-11T23:08:52.588Z,100955.41
2022-12-11T23:11:24.489Z,100958.03
2022-12-11T23:13:53.256Z,100962.31
2022-12-11T23:16:21.500Z,100966.56
2022-12-11T23:18:49.611Z,100970.91
2022-12-11T23:21:18.649Z,100960.56
2022-12-11T23:23:46.689Z,100970.81
2022-12-11T23:26:18.752Z,100963.97
2022-12-11T23:29:15.146Z,100967.50
2022-12-11T23:31:50.409Z,100958.94
2022-12-11T23:34:18.787Z,100964.94
2022-12-11T23:36:47.927Z,100964.13
2022-12-11T23:39:16.460Z,100961.50
2022-12-11T23:41:47.991Z,100959.75
2022-12-11T23:44:16.040Z,100967.44
2022-12-11T23:46:45.027Z,100963.94
2022-12-11T23:49:13.118Z,100963.88
2022-12-11T23:51:44.532Z,100962.22
2022-12-11T23:54:12.871Z,100959.69
2022-12-11T23:56:40.957Z,100953.59
2022-12-11T23:59:13.187Z,100957.91
